Sultana — WDA4793 — position and weather

sailwx.info

Track history (hours):
 
Tides and Currents Weather Stations Pressure Air Temp Water Temp Dewpoint Dewpoint Depression Visibility Wind Speed Wind Dir Waves Ship Positions

Sultana

Owner: Sultana Projects, Inc., CHESTERTOWN, MD. More information available from US FCC via Universal Licensing System and Coast Guard Vessel Documentation Center.

Last reported at 2017-Jul-25 20:29 UTC. Time now 2017-Jul-28 06:39 UTC.
Position N 39°22' W 076°00'.

Length 18 m.

Type: Sailing vessel. MMSI: 366813170.

Date/timePositionNaut miles runAvg speedWind from/ knotsBaromVisibWave heightAir tempDewpointWater temp
2017-Jul-25 20:29N 39°22' W 076°00'0 0.2
2017-Jul-25 20:00N 39°22' W 076°00'1 2.9
2017-Jul-25 19:30N 39°22' W 075°58'3 6.0
2017-Jul-25 18:58N 39°22' W 075°54'  
2017-Jul-21 13:52N 38°52' W 076°29'2 1.4
2017-Jul-21 12:22N 38°53' W 076°32'0 0.0
2017-Jul-21 11:55N 38°53' W 076°32'0 0.0
2017-Jul-21 11:28N 38°53' W 076°32'0 0.0
2017-Jul-21 10:55N 38°53' W 076°32'0 0.0
2017-Jul-21 10:07N 38°53' W 076°32'0 0.0
2017-Jul-21 08:58N 38°53' W 076°32'0 0.0
2017-Jul-21 08:22N 38°53' W 076°32'0 0.0
2017-Jul-21 07:34N 38°53' W 076°32'0 0.1
2017-Jul-21 07:22N 38°53' W 076°32'0 0.0
2017-Jul-21 06:55N 38°53' W 076°32'0 0.0
2017-Jul-21 06:16N 38°53' W 076°32'0 0.0
2017-Jul-21 05:58N 38°53' W 076°32'0 0.1
2017-Jul-21 05:28N 38°53' W 076°32'0 0.0
2017-Jul-21 04:58N 38°53' W 076°32'0 0.0
2017-Jul-21 04:16N 38°53' W 076°32'0 0.1
2017-Jul-21 03:55N 38°53' W 076°32'0 0.0
2017-Jul-20 18:33N 38°53' W 076°31'0 3.0
2017-Jul-20 18:30N 38°53' W 076°31'2 4.4
2017-Jul-20 18:00N 38°51' W 076°32'0 0.5
2017-Jul-20 17:28N 38°51' W 076°32'1 1.5
2017-Jul-20 17:00N 38°51' W 076°32'  
Track history (hours):
 
Tides and Currents Weather Stations Pressure Air Temp Water Temp Dewpoint Dewpoint Depression Visibility Wind Speed Wind Dir Waves Ship Positions

Sultana

Owner: Sultana Projects, Inc., CHESTERTOWN, MD. More information available from US FCC via Universal Licensing System and Coast Guard Vessel Documentation Center.

Last reported at 2017-Jul-25 20:29 UTC. Time now 2017-Jul-28 06:39 UTC.
Position N 39°22' W 076°00'.

Length 18 m.

Type: Sailing vessel. MMSI: 366813170.

Date/timePositionNaut miles runAvg speedWind from/ knotsBaromVisibWave heightAir tempDewpointWater temp
2017-Jul-25 20:29N 39°22' W 076°00'0 0.2
2017-Jul-25 20:00N 39°22' W 076°00'1 2.9
2017-Jul-25 19:30N 39°22' W 075°58'3 6.0
2017-Jul-25 18:58N 39°22' W 075°54'  
2017-Jul-21 13:52N 38°52' W 076°29'2 1.4
2017-Jul-21 12:22N 38°53' W 076°32'0 0.0
2017-Jul-21 11:55N 38°53' W 076°32'0 0.0
2017-Jul-21 11:28N 38°53' W 076°32'0 0.0
2017-Jul-21 10:55N 38°53' W 076°32'0 0.0
2017-Jul-21 10:07N 38°53' W 076°32'0 0.0
2017-Jul-21 08:58N 38°53' W 076°32'0 0.0
2017-Jul-21 08:22N 38°53' W 076°32'0 0.0
2017-Jul-21 07:34N 38°53' W 076°32'0 0.1
2017-Jul-21 07:22N 38°53' W 076°32'0 0.0
2017-Jul-21 06:55N 38°53' W 076°32'0 0.0
2017-Jul-21 06:16N 38°53' W 076°32'0 0.0
2017-Jul-21 05:58N 38°53' W 076°32'0 0.1
2017-Jul-21 05:28N 38°53' W 076°32'0 0.0
2017-Jul-21 04:58N 38°53' W 076°32'0 0.0
2017-Jul-21 04:16N 38°53' W 076°32'0 0.1
2017-Jul-21 03:55N 38°53' W 076°32'0 0.0
2017-Jul-20 18:33N 38°53' W 076°31'0 3.0
2017-Jul-20 18:30N 38°53' W 076°31'2 4.4
2017-Jul-20 18:00N 38°51' W 076°32'0 0.5
2017-Jul-20 17:28N 38°51' W 076°32'1 1.5
2017-Jul-20 17:00N 38°51' W 076°32'  

Dump ship's entire track history